Bryantsville, Indiana
Current Conditions -  °F | °C
As of 9:53 AM on Wednesday 22 Oct 2014 (Local Time) from KBMG Reporting Station
Clear Clear  
Wind Chill: 41°   Ceiling: Unl
Heat Index: 45°   Visibility: 10mi
Dew Point: 39°   Wind: 7mph
Humidity: 80%   Direction: 50°NE
Pressure: 30.31"   Gusts: NA
Location:  38.7366°N, 86.4546°W
Report Text: KBMG 221353Z 05006KT 10SM CLR 07/04 A3031 RMK AO2 SLP268 T00720039
Loading
Personal Weather Stations






























Interactive Weather Map
Tropical Storm Tracking
New forecast layout! Learn more

10-Day Weather Forecast

Advertisements
Track Severe Weather on mobile